createdAt,value
2022-08-25T00:01:56.724Z,47.10
2022-08-25T00:04:26.997Z,47.10
2022-08-25T00:07:02.263Z,46.90
2022-08-25T00:09:33.306Z,47.00
2022-08-25T00:12:03.098Z,47.00
2022-08-25T00:14:34.624Z,47.00
2022-08-25T00:17:04.359Z,46.80
2022-08-25T00:19:35.390Z,46.80
2022-08-25T00:22:05.409Z,47.30
2022-08-25T00:24:34.926Z,46.70
2022-08-25T00:27:04.442Z,46.70
2022-08-25T00:29:34.196Z,46.70
2022-08-25T00:32:04.239Z,46.70
2022-08-25T00:34:35.572Z,46.70
2022-08-25T00:37:05.934Z,46.60
2022-08-25T00:39:35.968Z,46.50
2022-08-25T00:42:10.784Z,46.80
2022-08-25T00:44:45.689Z,46.30
2022-08-25T00:47:15.247Z,46.40
2022-08-25T00:49:46.894Z,46.30
2022-08-25T00:52:18.586Z,46.40
2022-08-25T00:54:51.236Z,46.20
2022-08-25T00:57:33.940Z,46.20
2022-08-25T01:00:07.527Z,46.20
2022-08-25T01:02:37.862Z,46.20
2022-08-25T01:05:08.208Z,46.20
2022-08-25T01:07:37.645Z,46.10
2022-08-25T01:10:09.122Z,46.10
2022-08-25T01:12:39.150Z,46.10
2022-08-25T01:15:08.990Z,46.10
2022-08-25T01:17:57.018Z,46.00
2022-08-25T01:20:29.758Z,46.00
2022-08-25T01:23:00.090Z,46.00
2022-08-25T01:25:30.564Z,45.90
2022-08-25T01:28:00.029Z,45.80
2022-08-25T01:30:29.966Z,45.70
2022-08-25T01:32:59.450Z,45.80
2022-08-25T01:35:28.893Z,45.80
2022-08-25T01:37:58.358Z,45.80
2022-08-25T01:40:27.909Z,45.80
2022-08-25T01:43:17.438Z,45.80
2022-08-25T01:45:48.589Z,45.60
2022-08-25T01:48:18.098Z,45.60
2022-08-25T01:50:47.986Z,45.50
2022-08-25T01:53:23.663Z,45.50
2022-08-25T01:55:54.209Z,45.40
2022-08-25T01:58:24.662Z,45.20
2022-08-25T02:00:55.688Z,45.30
2022-08-25T02:03:26.171Z,45.30
2022-08-25T02:05:56.040Z,45.20
2022-08-25T02:08:25.513Z,45.20
2022-08-25T02:10:55.234Z,45.20
2022-08-25T02:13:26.621Z,45.10
2022-08-25T02:16:01.374Z,45.20
2022-08-25T02:18:30.918Z,45.20
2022-08-25T02:21:00.354Z,45.10
2022-08-25T02:23:30.089Z,45.20
2022-08-25T02:25:59.563Z,45.10
2022-08-25T02:28:29.066Z,44.90
2022-08-25T02:31:01.213Z,45.00
2022-08-25T02:33:31.615Z,45.00
2022-08-25T02:36:01.520Z,45.00
2022-08-25T02:38:31.058Z,45.00
2022-08-25T02:41:00.948Z,44.90
2022-08-25T02:43:30.761Z,44.90
2022-08-25T02:46:01.009Z,44.80
2022-08-25T02:48:30.445Z,44.80
2022-08-25T02:51:00.745Z,44.80
2022-08-25T02:53:30.249Z,44.80
2022-08-25T02:55:59.677Z,44.80
2022-08-25T02:58:30.201Z,44.80
2022-08-25T03:00:59.633Z,44.90
2022-08-25T03:03:29.607Z,44.80
2022-08-25T03:05:59.357Z,44.70
2022-08-25T03:08:28.998Z,44.70
2022-08-25T03:10:58.405Z,44.80
2022-08-25T03:13:27.871Z,44.90
2022-08-25T03:15:57.322Z,44.90
2022-08-25T03:18:26.840Z,45.00
2022-08-25T03:20:56.277Z,44.90
2022-08-25T03:23:25.819Z,45.00
2022-08-25T03:26:14.494Z,45.00
2022-08-25T03:28:44.015Z,45.00
2022-08-25T03:31:13.477Z,45.00
2022-08-25T03:33:43.373Z,45.00
2022-08-25T03:36:13.569Z,45.00
2022-08-25T03:38:43.068Z,44.90
2022-08-25T03:41:16.129Z,45.00
2022-08-25T03:43:48.099Z,45.10
2022-08-25T03:46:25.195Z,44.90
2022-08-25T03:48:54.748Z,45.10
2022-08-25T03:51:24.846Z,45.00
2022-08-25T03:53:54.693Z,44.90
2022-08-25T03:56:24.192Z,44.80
2022-08-25T03:58:53.925Z,44.80
2022-08-25T04:01:23.571Z,44.70
2022-08-25T04:03:53.027Z,44.80
2022-08-25T04:06:22.761Z,44.70
2022-08-25T04:08:53.866Z,44.60
2022-08-25T04:11:23.710Z,44.60
2022-08-25T04:13:53.389Z,44.60
2022-08-25T04:16:24.094Z,44.60
2022-08-25T04:18:53.781Z,44.70
2022-08-25T04:21:23.346Z,44.70
2022-08-25T04:23:53.119Z,44.70
2022-08-25T04:26:32.692Z,44.70
2022-08-25T04:29:02.450Z,44.80
2022-08-25T04:31:32.125Z,44.70
2022-08-25T04:34:29.518Z,44.80
2022-08-25T04:36:54.815Z,44.60
2022-08-25T04:39:24.366Z,44.70
2022-08-25T04:41:54.307Z,44.70
2022-08-25T04:44:24.109Z,44.70
2022-08-25T04:46:53.571Z,44.80
2022-08-25T04:49:23.050Z,44.70
2022-08-25T04:51:52.531Z,44.60
2022-08-25T04:54:24.672Z,44.70
2022-08-25T04:56:58.463Z,44.50
2022-08-25T04:59:29.509Z,44.30
2022-08-25T05:02:03.465Z,44.10
2022-08-25T05:04:34.504Z,44.10
2022-08-25T05:07:04.713Z,44.00
2022-08-25T05:09:34.390Z,44.00
2022-08-25T05:12:04.451Z,44.30
2022-08-25T05:14:33.943Z,44.40
2022-08-25T05:17:03.991Z,44.40
2022-08-25T05:19:33.446Z,44.50
2022-08-25T05:22:03.091Z,44.40
2022-08-25T05:24:32.601Z,44.40
2022-08-25T05:27:02.413Z,44.40
2022-08-25T05:29:32.092Z,44.50
2022-08-25T05:32:01.767Z,44.30
2022-08-25T05:34:32.234Z,44.20
2022-08-25T05:37:04.475Z,44.30
2022-08-25T05:39:34.958Z,44.10
2022-08-25T05:42:04.517Z,44.00
2022-08-25T05:44:34.268Z,44.00
2022-08-25T05:47:03.772Z,44.00
2022-08-25T05:49:33.287Z,44.10
2022-08-25T05:52:05.241Z,44.00
2022-08-25T05:54:35.129Z,43.70
2022-08-25T05:57:04.581Z,43.60
2022-08-25T05:59:34.196Z,43.60
2022-08-25T06:02:21.532Z,43.60
2022-08-25T06:04:51.952Z,43.80
2022-08-25T06:07:22.275Z,43.70
2022-08-25T06:09:51.878Z,43.90
2022-08-25T06:12:22.827Z,43.90
2022-08-25T06:14:53.080Z,43.80
2022-08-25T06:17:23.823Z,43.80
2022-08-25T06:19:54.771Z,43.50
2022-08-25T06:22:24.243Z,43.40
2022-08-25T06:24:54.699Z,43.20
2022-08-25T06:27:24.469Z,43.30
2022-08-25T06:29:56.024Z,43.30
2022-08-25T06:32:25.745Z,43.20
2022-08-25T06:34:55.631Z,42.90
2022-08-25T06:37:25.397Z,42.50
2022-08-25T06:39:55.141Z,42.50
2022-08-25T06:42:24.662Z,42.30
2022-08-25T06:44:54.091Z,42.20
2022-08-25T06:47:23.700Z,42.00
2022-08-25T06:49:53.194Z,42.00
2022-08-25T06:52:22.719Z,41.80
2022-08-25T06:54:59.560Z,41.80
2022-08-25T06:57:29.043Z,41.50
2022-08-25T06:59:58.594Z,39.70
2022-08-25T07:02:28.151Z,36.70
2022-08-25T07:04:58.930Z,34.90
2022-08-25T07:07:42.818Z,36.30
2022-08-25T07:10:13.998Z,38.10
2022-08-25T07:12:49.379Z,38.80
2022-08-25T07:15:20.883Z,39.10
2022-08-25T07:17:50.814Z,37.70
2022-08-25T07:20:20.827Z,34.90
2022-08-25T07:22:50.916Z,33.70
2022-08-25T07:25:20.637Z,33.00
2022-08-25T07:27:50.585Z,32.60
2022-08-25T07:30:20.069Z,32.60
2022-08-25T07:32:55.046Z,32.40
2022-08-25T07:35:26.623Z,32.50
2022-08-25T07:38:09.131Z,32.50
2022-08-25T07:40:42.678Z,33.10
2022-08-25T07:43:13.238Z,33.60
2022-08-25T07:45:49.126Z,35.10
2022-08-25T07:48:21.077Z,35.40
2022-08-25T07:50:50.890Z,34.30
2022-08-25T07:53:20.893Z,33.60
2022-08-25T07:55:53.573Z,33.40
2022-08-25T07:58:23.952Z,33.40
2022-08-25T08:00:54.561Z,34.40
2022-08-25T08:03:44.527Z,34.40
2022-08-25T08:06:15.627Z,34.30
2022-08-25T08:08:46.674Z,35.00
2022-08-25T08:11:39.729Z,35.10
2022-08-25T08:14:14.483Z,34.90
2022-08-25T08:16:46.965Z,34.50
2022-08-25T08:19:17.152Z,34.50
2022-08-25T08:21:47.864Z,34.40
2022-08-25T08:24:40.802Z,34.40
2022-08-25T08:27:08.109Z,34.40
2022-08-25T08:29:37.686Z,34.50
2022-08-25T08:32:07.786Z,34.90
2022-08-25T08:34:37.595Z,34.90
2022-08-25T08:37:07.193Z,35.00
2022-08-25T08:39:40.021Z,34.70
2022-08-25T08:42:44.049Z,34.50
2022-08-25T08:45:24.622Z,34.60
2022-08-25T08:48:12.555Z,34.60
2022-08-25T08:51:09.766Z,34.60
2022-08-25T08:53:42.550Z,34.60
2022-08-25T08:56:22.202Z,34.70
2022-08-25T08:59:06.114Z,35.20
2022-08-25T09:01:42.539Z,35.70
2022-08-25T09:04:12.709Z,36.10
2022-08-25T09:06:45.775Z,36.50
2022-08-25T09:09:20.163Z,36.80
2022-08-25T09:12:02.407Z,37.00
2022-08-25T09:14:44.955Z,37.40
2022-08-25T09:17:35.694Z,37.50
2022-08-25T09:20:18.810Z,37.70
2022-08-25T09:23:06.874Z,38.00
2022-08-25T09:25:55.226Z,38.20
2022-08-25T09:28:30.268Z,38.40
2022-08-25T09:31:01.482Z,38.60
2022-08-25T09:33:34.231Z,38.70
2022-08-25T09:36:06.222Z,38.80
2022-08-25T09:38:38.488Z,38.90
2022-08-25T09:41:08.157Z,39.00
2022-08-25T09:43:38.933Z,39.10
2022-08-25T09:46:18.806Z,39.30
2022-08-25T09:48:57.556Z,39.50
2022-08-25T09:51:38.215Z,39.50
2022-08-25T09:54:16.384Z,39.60
2022-08-25T09:56:56.033Z,39.70
2022-08-25T09:59:34.156Z,39.90
2022-08-25T10:02:07.846Z,39.90
2022-08-25T10:04:40.835Z,40.00
2022-08-25T10:07:29.050Z,40.10
2022-08-25T10:10:00.789Z,40.20
2022-08-25T10:12:59.384Z,40.30
2022-08-25T10:15:30.052Z,40.50
2022-08-25T10:18:22.481Z,40.50
2022-08-25T10:21:07.835Z,40.50
2022-08-25T10:23:39.159Z,40.60
2022-08-25T10:26:14.797Z,40.80
2022-08-25T10:29:04.035Z,40.90
2022-08-25T10:31:46.479Z,41.00
2022-08-25T10:34:23.025Z,41.10
2022-08-25T10:36:58.939Z,41.20
2022-08-25T10:39:34.613Z,41.30
2022-08-25T10:42:42.817Z,41.40
2022-08-25T10:45:36.264Z,41.60
2022-08-25T10:48:14.251Z,41.60
2022-08-25T10:50:49.011Z,41.80
2022-08-25T10:53:27.247Z,41.80
2022-08-25T10:55:57.256Z,41.90
2022-08-25T10:58:30.933Z,42.00
2022-08-25T11:01:05.575Z,42.10
2022-08-25T11:03:40.922Z,42.20
2022-08-25T11:06:20.841Z,42.30
2022-08-25T11:08:50.473Z,42.40
2022-08-25T11:11:26.864Z,42.50
2022-08-25T11:14:10.979Z,42.60
2022-08-25T11:16:48.584Z,42.70
2022-08-25T11:19:32.778Z,42.70
2022-08-25T11:22:03.571Z,42.70
2022-08-25T11:24:36.417Z,42.90
2022-08-25T11:27:07.891Z,43.00
2022-08-25T11:29:39.558Z,43.10
2022-08-25T11:32:09.361Z,43.10
2022-08-25T11:34:43.715Z,43.30
2022-08-25T11:37:16.296Z,43.40
2022-08-25T11:39:57.640Z,43.30
2022-08-25T11:42:31.627Z,43.40
2022-08-25T11:45:04.199Z,43.50
2022-08-25T11:47:36.732Z,43.70
2022-08-25T11:50:30.099Z,43.80
2022-08-25T11:53:30.329Z,43.80
2022-08-25T11:56:07.247Z,43.90
2022-08-25T11:58:43.287Z,43.90
2022-08-25T12:01:36.915Z,44.10
2022-08-25T12:04:14.865Z,44.10
2022-08-25T12:07:03.052Z,44.20
2022-08-25T12:09:32.567Z,44.10
2022-08-25T12:12:08.416Z,44.30
2022-08-25T12:14:44.267Z,44.30
2022-08-25T12:17:22.299Z,44.50
2022-08-25T12:19:55.368Z,44.50
2022-08-25T12:22:24.938Z,44.50
2022-08-25T12:25:10.949Z,44.60
2022-08-25T12:27:58.478Z,44.60
2022-08-25T12:30:30.203Z,45.10
2022-08-25T12:33:15.275Z,44.60
2022-08-25T12:36:01.321Z,44.70
2022-08-25T12:38:35.034Z,44.80
2022-08-25T12:41:11.777Z,44.70
2022-08-25T12:43:43.322Z,44.80
2022-08-25T12:46:26.952Z,44.80
2022-08-25T12:49:00.271Z,44.90
2022-08-25T12:51:29.690Z,45.00
2022-08-25T12:54:01.590Z,44.90
2022-08-25T12:56:39.458Z,45.00
2022-08-25T12:59:19.608Z,45.00
2022-08-25T13:01:55.548Z,45.00
2022-08-25T13:04:25.797Z,45.00
2022-08-25T13:07:13.666Z,45.10
2022-08-25T13:09:59.853Z,45.10
2022-08-25T13:12:35.434Z,45.10
2022-08-25T13:15:05.228Z,45.10
2022-08-25T13:17:35.551Z,45.20
2022-08-25T13:20:17.325Z,45.20
2022-08-25T13:22:48.862Z,45.20
2022-08-25T13:25:23.168Z,45.20
2022-08-25T13:28:03.175Z,45.20
2022-08-25T13:30:34.245Z,45.30
2022-08-25T13:33:20.654Z,45.30
2022-08-25T13:36:14.882Z,45.30
2022-08-25T13:38:45.696Z,45.20
2022-08-25T13:41:20.263Z,45.30
2022-08-25T13:43:51.438Z,45.30
2022-08-25T13:46:21.982Z,45.40
2022-08-25T13:48:51.555Z,45.40
2022-08-25T13:51:31.094Z,45.40
2022-08-25T13:54:05.017Z,45.40
2022-08-25T13:56:41.067Z,45.50
2022-08-25T13:59:31.281Z,45.50
2022-08-25T14:02:01.235Z,45.50
2022-08-25T14:04:34.956Z,45.50
2022-08-25T14:07:19.435Z,45.50
2022-08-25T14:09:50.424Z,45.40
2022-08-25T14:12:29.509Z,45.40
2022-08-25T14:15:00.280Z,45.50
2022-08-25T14:17:39.190Z,45.40
2022-08-25T14:20:20.500Z,45.50
2022-08-25T14:22:52.407Z,45.50
2022-08-25T14:25:23.882Z,45.60
2022-08-25T14:28:13.621Z,45.60
2022-08-25T14:30:55.566Z,45.50
2022-08-25T14:33:26.270Z,45.60
2022-08-25T14:35:55.892Z,45.50
2022-08-25T14:38:25.442Z,45.70
2022-08-25T14:40:55.089Z,45.60
2022-08-25T14:43:31.807Z,45.70
2022-08-25T14:46:07.217Z,45.60
2022-08-25T14:48:38.356Z,45.70
2022-08-25T14:51:07.848Z,45.70
2022-08-25T14:53:37.331Z,45.70
2022-08-25T14:56:10.173Z,45.60
2022-08-25T14:58:50.875Z,45.70
2022-08-25T15:01:29.201Z,45.70
2022-08-25T15:04:00.577Z,45.80
2022-08-25T15:06:30.703Z,45.70
2022-08-25T15:09:09.364Z,45.70
2022-08-25T15:11:41.737Z,45.70
2022-08-25T15:14:12.347Z,45.80
2022-08-25T15:16:42.859Z,45.70
2022-08-25T15:19:15.778Z,45.80
2022-08-25T15:21:45.590Z,45.80
2022-08-25T15:24:17.223Z,45.80
2022-08-25T15:29:30.810Z,45.80
2022-08-25T15:32:01.204Z,45.80
2022-08-25T15:34:31.053Z,45.80
2022-08-25T15:37:00.659Z,45.80
2022-08-25T15:39:32.381Z,45.70
2022-08-25T15:42:03.758Z,45.80
2022-08-25T15:44:34.417Z,45.80
2022-08-25T15:47:05.772Z,45.80
2022-08-25T15:49:36.130Z,45.90
2022-08-25T15:52:06.439Z,45.90
2022-08-25T15:54:36.328Z,45.90
2022-08-25T15:57:08.773Z,45.90
2022-08-25T15:59:40.257Z,46.00
2022-08-25T16:02:11.558Z,45.90
2022-08-25T16:04:45.132Z,46.00
2022-08-25T16:07:15.072Z,45.90
2022-08-25T16:09:44.584Z,45.90
2022-08-25T16:12:14.278Z,45.90
2022-08-25T16:14:43.793Z,46.00
2022-08-25T16:17:13.730Z,45.90
2022-08-25T16:19:43.264Z,46.00
2022-08-25T16:22:14.078Z,46.00
2022-08-25T16:24:45.558Z,45.90
2022-08-25T16:27:15.346Z,45.90
2022-08-25T16:29:45.088Z,46.00
2022-08-25T16:32:15.113Z,46.00
2022-08-25T16:34:45.949Z,46.00
2022-08-25T16:37:17.196Z,46.10
2022-08-25T16:39:47.219Z,46.00
2022-08-25T16:42:17.210Z,46.10
2022-08-25T16:44:47.903Z,46.10
2022-08-25T16:47:25.177Z,46.00
2022-08-25T16:49:56.657Z,46.00
2022-08-25T16:52:45.610Z,46.10
2022-08-25T16:55:16.499Z,46.10
2022-08-25T16:57:55.867Z,46.00
2022-08-25T17:00:26.205Z,46.10
2022-08-25T17:03:02.409Z,46.10
2022-08-25T17:05:32.327Z,46.00
2022-08-25T17:08:20.102Z,46.20
2022-08-25T17:10:49.755Z,46.20
2022-08-25T17:13:19.381Z,46.10
2022-08-25T17:15:52.375Z,46.20
2022-08-25T17:18:22.438Z,46.30
2022-08-25T17:20:59.714Z,46.20
2022-08-25T17:23:29.636Z,46.20
2022-08-25T17:25:59.757Z,46.30
2022-08-25T17:28:29.270Z,46.20
2022-08-25T17:30:59.430Z,46.30
2022-08-25T17:33:28.953Z,46.20
2022-08-25T17:35:58.769Z,46.20
2022-08-25T17:38:28.556Z,46.20
2022-08-25T17:40:58.944Z,46.30
2022-08-25T17:43:29.139Z,46.40
2022-08-25T17:45:58.790Z,46.30
2022-08-25T17:48:28.337Z,46.30
2022-08-25T17:50:57.997Z,46.30
2022-08-25T17:53:27.702Z,46.30
2022-08-25T17:56:04.406Z,46.20
2022-08-25T17:58:34.341Z,46.40
2022-08-25T18:01:04.397Z,46.30
2022-08-25T18:03:34.483Z,46.40
2022-08-25T18:06:07.386Z,46.40
2022-08-25T18:08:37.318Z,46.40
2022-08-25T18:11:08.548Z,46.30
2022-08-25T18:13:38.195Z,46.40
2022-08-25T18:16:10.257Z,46.40
2022-08-25T18:18:40.396Z,46.30
2022-08-25T18:21:15.712Z,46.40
2022-08-25T18:23:45.704Z,46.40
2022-08-25T18:26:16.764Z,46.50
2022-08-25T18:28:46.486Z,46.40
2022-08-25T18:31:16.446Z,46.40
2022-08-25T18:33:51.049Z,46.40
2022-08-25T18:36:22.221Z,46.50
2022-08-25T18:39:09.837Z,46.60
2022-08-25T18:41:40.391Z,46.60
2022-08-25T18:44:10.944Z,46.60
2022-08-25T18:46:43.357Z,46.60
2022-08-25T18:49:16.292Z,46.60
2022-08-25T18:51:47.535Z,46.60
2022-08-25T18:54:23.471Z,46.50
2022-08-25T18:56:54.325Z,46.60
2022-08-25T18:59:24.091Z,46.60
2022-08-25T19:01:54.886Z,46.60
2022-08-25T19:04:31.230Z,46.60
2022-08-25T19:07:02.232Z,46.70
2022-08-25T19:09:32.749Z,46.60
2022-08-25T19:12:02.377Z,46.60
2022-08-25T19:14:31.924Z,46.70
2022-08-25T19:17:01.665Z,46.60
2022-08-25T19:19:31.248Z,46.70
2022-08-25T19:22:01.440Z,46.60
2022-08-25T19:24:33.370Z,46.60
2022-08-25T19:27:04.673Z,46.70
2022-08-25T19:29:34.192Z,46.80
2022-08-25T19:32:03.656Z,47.30
2022-08-25T19:34:36.024Z,46.80
2022-08-25T19:37:06.038Z,46.80
2022-08-25T19:39:35.823Z,46.80
2022-08-25T19:42:08.821Z,46.80
2022-08-25T19:44:58.258Z,46.80
2022-08-25T19:47:29.239Z,46.90
2022-08-25T19:49:59.609Z,46.80
2022-08-25T19:52:29.104Z,46.80
2022-08-25T19:54:59.566Z,46.90
2022-08-25T19:57:42.821Z,46.90
2022-08-25T20:00:16.945Z,46.80
2022-08-25T20:02:46.872Z,46.80
2022-08-25T20:05:23.567Z,46.90
2022-08-25T20:07:53.955Z,46.90
2022-08-25T20:10:24.668Z,46.90
2022-08-25T20:12:55.935Z,47.00
2022-08-25T20:15:25.382Z,46.90
2022-08-25T20:17:56.648Z,46.90
2022-08-25T20:20:32.353Z,47.10
2022-08-25T20:23:22.792Z,46.90
2022-08-25T20:25:52.690Z,46.90
2022-08-25T20:28:22.179Z,46.80
2022-08-25T20:30:51.620Z,47.10
2022-08-25T20:33:22.907Z,47.10
2022-08-25T20:35:53.004Z,46.90
2022-08-25T20:38:22.665Z,47.00
2022-08-25T20:40:52.333Z,47.00
2022-08-25T20:43:21.764Z,47.00
2022-08-25T20:45:51.485Z,47.00
2022-08-25T20:48:20.986Z,47.10
2022-08-25T20:50:57.407Z,47.10
2022-08-25T20:53:27.418Z,47.00
2022-08-25T20:55:56.834Z,47.10
2022-08-25T20:58:26.560Z,47.20
2022-08-25T21:00:56.467Z,47.20
2022-08-25T21:03:26.534Z,47.10
2022-08-25T21:05:56.112Z,47.00
2022-08-25T21:08:26.570Z,47.20
2022-08-25T21:10:56.070Z,47.20
2022-08-25T21:13:25.582Z,47.00
2022-08-25T21:15:55.493Z,47.10
2022-08-25T21:18:28.635Z,47.30
2022-08-25T21:21:13.563Z,47.10
2022-08-25T21:23:44.770Z,46.90
2022-08-25T21:26:15.992Z,47.20
2022-08-25T21:28:47.544Z,47.20
2022-08-25T21:31:18.108Z,47.20
2022-08-25T21:33:49.885Z,47.20
2022-08-25T21:36:21.158Z,47.20
2022-08-25T21:38:50.951Z,47.20
2022-08-25T21:41:22.530Z,47.20
2022-08-25T21:43:52.275Z,47.20
2022-08-25T21:46:23.301Z,47.40
2022-08-25T21:48:53.652Z,47.30
2022-08-25T21:51:24.732Z,47.30
2022-08-25T21:54:10.062Z,47.30
2022-08-25T21:56:39.952Z,47.40
2022-08-25T21:59:10.138Z,47.20
2022-08-25T22:01:40.821Z,47.30
2022-08-25T22:04:11.875Z,47.40
2022-08-25T22:06:41.813Z,47.20
2022-08-25T22:09:14.415Z,47.30
2022-08-25T22:11:44.478Z,47.30
2022-08-25T22:14:14.361Z,47.30
2022-08-25T22:16:44.379Z,47.30
2022-08-25T22:19:14.909Z,47.30
2022-08-25T22:21:45.396Z,47.30
2022-08-25T22:24:15.019Z,47.30
2022-08-25T22:26:46.607Z,47.40
2022-08-25T22:29:25.762Z,47.40
2022-08-25T22:32:02.097Z,47.40
2022-08-25T22:34:33.689Z,47.30
2022-08-25T22:37:04.264Z,47.40
2022-08-25T22:39:34.712Z,47.30
2022-08-25T22:42:04.770Z,47.20
2022-08-25T22:44:34.836Z,47.40
2022-08-25T22:47:04.552Z,47.40
2022-08-25T22:49:36.680Z,47.30
2022-08-25T22:52:07.697Z,47.40
2022-08-25T22:54:42.327Z,47.40
2022-08-25T22:57:12.789Z,47.30
2022-08-25T22:59:42.416Z,47.40
2022-08-25T23:02:12.365Z,47.50
2022-08-25T23:04:43.507Z,47.30
2022-08-25T23:07:13.373Z,47.30
2022-08-25T23:09:44.046Z,47.40
2022-08-25T23:12:14.753Z,47.40
2022-08-25T23:14:44.613Z,47.30
2022-08-25T23:17:15.180Z,47.40
2022-08-25T23:19:45.093Z,47.40
2022-08-25T23:22:18.736Z,47.30
2022-08-25T23:24:49.686Z,47.40
2022-08-25T23:27:20.588Z,47.30
2022-08-25T23:29:51.105Z,47.40
2022-08-25T23:32:21.553Z,47.30
2022-08-25T23:34:51.618Z,47.40
2022-08-25T23:37:21.186Z,47.30
2022-08-25T23:39:50.860Z,47.20
2022-08-25T23:42:23.104Z,47.20
2022-08-25T23:44:53.047Z,47.20
2022-08-25T23:47:22.751Z,47.20
2022-08-25T23:49:52.713Z,47.20
2022-08-25T23:52:22.784Z,47.20
2022-08-25T23:54:52.649Z,47.20
2022-08-25T23:57:22.250Z,47.10
2022-08-25T23:59:52.128Z,47.00
